sensor_id;sensor_type;location;lat;lon;timestamp;temperature;humidity
4390;DHT22;2209;48.982;8.406;2022-08-06T00:02:02;25.20;62.70
4390;DHT22;2209;48.982;8.406;2022-08-06T00:04:24;25.20;62.80
4390;DHT22;2209;48.982;8.406;2022-08-06T00:06:48;25.20;62.70
4390;DHT22;2209;48.982;8.406;2022-08-06T00:09:10;25.30;62.50
4390;DHT22;2209;48.982;8.406;2022-08-06T00:11:32;25.30;62.40
4390;DHT22;2209;48.982;8.406;2022-08-06T00:13:54;25.30;62.10
4390;DHT22;2209;48.982;8.406;2022-08-06T00:16:17;25.30;62.10
4390;DHT22;2209;48.982;8.406;2022-08-06T00:18:40;25.30;62.20
4390;DHT22;2209;48.982;8.406;2022-08-06T00:21:03;25.30;62.30
4390;DHT22;2209;48.982;8.406;2022-08-06T00:23:26;25.30;62.40
4390;DHT22;2209;48.982;8.406;2022-08-06T00:25:49;25.30;62.30
4390;DHT22;2209;48.982;8.406;2022-08-06T00:28:11;25.30;62.10
4390;DHT22;2209;48.982;8.406;2022-08-06T00:30:37;25.30;62.20
4390;DHT22;2209;48.982;8.406;2022-08-06T00:33:02;25.30;61.90
4390;DHT22;2209;48.982;8.406;2022-08-06T00:35:25;25.30;62.80
4390;DHT22;2209;48.982;8.406;2022-08-06T00:37:48;25.30;62.20
4390;DHT22;2209;48.982;8.406;2022-08-06T00:40:12;25.30;62.20
4390;DHT22;2209;48.982;8.406;2022-08-06T00:42:36;25.30;62.30
4390;DHT22;2209;48.982;8.406;2022-08-06T00:44:58;25.20;62.00
4390;DHT22;2209;48.982;8.406;2022-08-06T00:47:25;25.20;62.10
4390;DHT22;2209;48.982;8.406;2022-08-06T00:49:50;25.20;61.70
4390;DHT22;2209;48.982;8.406;2022-08-06T00:52:12;25.10;61.80
4390;DHT22;2209;48.982;8.406;2022-08-06T00:54:39;25.00;62.00
4390;DHT22;2209;48.982;8.406;2022-08-06T00:57:03;25.00;62.00
4390;DHT22;2209;48.982;8.406;2022-08-06T00:59:27;24.90;61.70
4390;DHT22;2209;48.982;8.406;2022-08-06T01:01:49;24.90;62.00
4390;DHT22;2209;48.982;8.406;2022-08-06T01:04:13;24.90;61.80
4390;DHT22;2209;48.982;8.406;2022-08-06T01:06:37;24.80;61.80
4390;DHT22;2209;48.982;8.406;2022-08-06T01:08:59;24.80;61.40
4390;DHT22;2209;48.982;8.406;2022-08-06T01:11:21;24.70;61.80
4390;DHT22;2209;48.982;8.406;2022-08-06T01:13:45;24.50;61.70
4390;DHT22;2209;48.982;8.406;2022-08-06T01:16:11;24.50;62.30
4390;DHT22;2209;48.982;8.406;2022-08-06T01:18:43;24.50;62.70
4390;DHT22;2209;48.982;8.406;2022-08-06T01:21:18;24.50;63.40
4390;DHT22;2209;48.982;8.406;2022-08-06T01:27:31;24.50;62.20
4390;DHT22;2209;48.982;8.406;2022-08-06T01:30:00;24.60;62.00
4390;DHT22;2209;48.982;8.406;2022-08-06T01:32:27;24.50;61.80
4390;DHT22;2209;48.982;8.406;2022-08-06T01:34:57;24.50;62.00
4390;DHT22;2209;48.982;8.406;2022-08-06T01:37:23;24.50;61.70
4390;DHT22;2209;48.982;8.406;2022-08-06T01:39:52;24.40;61.80
4390;DHT22;2209;48.982;8.406;2022-08-06T01:42:17;24.30;62.10
4390;DHT22;2209;48.982;8.406;2022-08-06T01:44:43;24.30;61.70
4390;DHT22;2209;48.982;8.406;2022-08-06T01:47:12;24.30;61.80
4390;DHT22;2209;48.982;8.406;2022-08-06T01:49:40;24.30;62.00
4390;DHT22;2209;48.982;8.406;2022-08-06T01:52:05;24.30;62.10
4390;DHT22;2209;48.982;8.406;2022-08-06T01:54:36;24.40;61.70
4390;DHT22;2209;48.982;8.406;2022-08-06T01:57:02;24.30;62.00
4390;DHT22;2209;48.982;8.406;2022-08-06T01:59:31;24.30;62.30
4390;DHT22;2209;48.982;8.406;2022-08-06T02:01:55;24.30;62.30
4390;DHT22;2209;48.982;8.406;2022-08-06T02:04:20;24.30;62.20
4390;DHT22;2209;48.982;8.406;2022-08-06T02:06:46;24.30;62.30
4390;DHT22;2209;48.982;8.406;2022-08-06T02:09:15;24.30;62.30
4390;DHT22;2209;48.982;8.406;2022-08-06T02:11:39;24.40;62.40
4390;DHT22;2209;48.982;8.406;2022-08-06T02:14:03;24.40;62.00
4390;DHT22;2209;48.982;8.406;2022-08-06T02:16:32;24.40;62.90
4390;DHT22;2209;48.982;8.406;2022-08-06T02:18:58;24.50;62.30
4390;DHT22;2209;48.982;8.406;2022-08-06T02:21:25;24.40;62.20
4390;DHT22;2209;48.982;8.406;2022-08-06T02:23:49;24.40;61.90
4390;DHT22;2209;48.982;8.406;2022-08-06T02:26:14;24.30;62.20
4390;DHT22;2209;48.982;8.406;2022-08-06T02:28:38;24.30;62.40
4390;DHT22;2209;48.982;8.406;2022-08-06T02:31:03;24.20;62.60
4390;DHT22;2209;48.982;8.406;2022-08-06T02:33:30;24.20;62.80
4390;DHT22;2209;48.982;8.406;2022-08-06T02:36:00;24.20;62.70
4390;DHT22;2209;48.982;8.406;2022-08-06T02:38:31;24.10;63.00
4390;DHT22;2209;48.982;8.406;2022-08-06T02:40:59;24.10;63.30
4390;DHT22;2209;48.982;8.406;2022-08-06T02:43:31;24.10;63.50
4390;DHT22;2209;48.982;8.406;2022-08-06T02:45:59;24.10;63.50
4390;DHT22;2209;48.982;8.406;2022-08-06T02:48:29;24.10;63.50
4390;DHT22;2209;48.982;8.406;2022-08-06T02:50:53;24.10;63.40
4390;DHT22;2209;48.982;8.406;2022-08-06T02:53:18;24.10;63.60
4390;DHT22;2209;48.982;8.406;2022-08-06T02:55:45;24.10;63.60
4390;DHT22;2209;48.982;8.406;2022-08-06T02:58:12;24.10;63.60
4390;DHT22;2209;48.982;8.406;2022-08-06T03:00:41;24.10;63.70
4390;DHT22;2209;48.982;8.406;2022-08-06T03:03:05;24.00;64.00
4390;DHT22;2209;48.982;8.406;2022-08-06T03:05:30;23.80;64.30
4390;DHT22;2209;48.982;8.406;2022-08-06T03:07:56;23.70;64.50
4390;DHT22;2209;48.982;8.406;2022-08-06T03:10:21;23.70;64.90
4390;DHT22;2209;48.982;8.406;2022-08-06T03:12:46;23.60;64.90
4390;DHT22;2209;48.982;8.406;2022-08-06T03:15:10;23.50;65.20
4390;DHT22;2209;48.982;8.406;2022-08-06T03:17:33;23.50;65.50
4390;DHT22;2209;48.982;8.406;2022-08-06T03:19:58;23.40;65.60
4390;DHT22;2209;48.982;8.406;2022-08-06T03:22:25;23.30;66.10
4390;DHT22;2209;48.982;8.406;2022-08-06T03:24:49;23.30;66.30
4390;DHT22;2209;48.982;8.406;2022-08-06T03:27:15;23.20;66.40
4390;DHT22;2209;48.982;8.406;2022-08-06T03:29:39;23.30;66.60
4390;DHT22;2209;48.982;8.406;2022-08-06T03:32:02;23.30;66.60
4390;DHT22;2209;48.982;8.406;2022-08-06T03:34:26;23.30;66.70
4390;DHT22;2209;48.982;8.406;2022-08-06T03:36:50;23.40;66.60
4390;DHT22;2209;48.982;8.406;2022-08-06T03:39:15;23.50;66.60
4390;DHT22;2209;48.982;8.406;2022-08-06T03:41:39;23.60;66.50
4390;DHT22;2209;48.982;8.406;2022-08-06T03:44:03;23.60;66.50
4390;DHT22;2209;48.982;8.406;2022-08-06T03:46:29;23.60;66.50
4390;DHT22;2209;48.982;8.406;2022-08-06T03:48:57;23.60;66.80
4390;DHT22;2209;48.982;8.406;2022-08-06T03:51:24;23.40;67.20
4390;DHT22;2209;48.982;8.406;2022-08-06T03:53:47;23.30;67.60
4390;DHT22;2209;48.982;8.406;2022-08-06T03:56:16;23.30;68.00
4390;DHT22;2209;48.982;8.406;2022-08-06T03:58:43;23.20;68.60
4390;DHT22;2209;48.982;8.406;2022-08-06T04:01:09;23.00;69.10
4390;DHT22;2209;48.982;8.406;2022-08-06T04:03:35;22.90;69.60
4390;DHT22;2209;48.982;8.406;2022-08-06T04:05:59;22.80;70.00
4390;DHT22;2209;48.982;8.406;2022-08-06T04:08:24;22.70;70.10
4390;DHT22;2209;48.982;8.406;2022-08-06T04:10:48;22.70;70.00
4390;DHT22;2209;48.982;8.406;2022-08-06T04:13:15;22.80;70.00
4390;DHT22;2209;48.982;8.406;2022-08-06T04:15:43;22.90;69.90
4390;DHT22;2209;48.982;8.406;2022-08-06T04:18:08;23.00;69.70
4390;DHT22;2209;48.982;8.406;2022-08-06T04:20:34;23.00;69.10
4390;DHT22;2209;48.982;8.406;2022-08-06T04:22:57;23.10;69.30
4390;DHT22;2209;48.982;8.406;2022-08-06T04:25:22;23.10;69.40
4390;DHT22;2209;48.982;8.406;2022-08-06T04:27:49;23.10;69.30
4390;DHT22;2209;48.982;8.406;2022-08-06T04:30:14;23.10;69.10
4390;DHT22;2209;48.982;8.406;2022-08-06T04:32:39;23.10;69.30
4390;DHT22;2209;48.982;8.406;2022-08-06T04:35:04;23.20;69.00
4390;DHT22;2209;48.982;8.406;2022-08-06T04:37:28;23.20;68.90
4390;DHT22;2209;48.982;8.406;2022-08-06T04:39:52;23.20;68.90
4390;DHT22;2209;48.982;8.406;2022-08-06T04:42:16;23.20;68.90
4390;DHT22;2209;48.982;8.406;2022-08-06T04:44:40;23.10;68.90
4390;DHT22;2209;48.982;8.406;2022-08-06T04:47:05;23.20;68.90
4390;DHT22;2209;48.982;8.406;2022-08-06T04:49:29;23.10;68.70
4390;DHT22;2209;48.982;8.406;2022-08-06T04:51:55;23.10;68.60
4390;DHT22;2209;48.982;8.406;2022-08-06T04:54:18;23.10;68.60
4390;DHT22;2209;48.982;8.406;2022-08-06T04:56:44;23.00;68.90
4390;DHT22;2209;48.982;8.406;2022-08-06T04:59:08;23.00;69.20
4390;DHT22;2209;48.982;8.406;2022-08-06T05:01:32;23.00;69.20
4390;DHT22;2209;48.982;8.406;2022-08-06T05:03:57;23.00;69.10
4390;DHT22;2209;48.982;8.406;2022-08-06T05:06:24;23.00;69.10
4390;DHT22;2209;48.982;8.406;2022-08-06T05:08:51;23.00;68.90
4390;DHT22;2209;48.982;8.406;2022-08-06T05:11:30;22.90;69.00
4390;DHT22;2209;48.982;8.406;2022-08-06T05:14:01;22.80;69.20
4390;DHT22;2209;48.982;8.406;2022-08-06T05:16:24;22.80;69.50
4390;DHT22;2209;48.982;8.406;2022-08-06T05:18:53;22.80;69.50
4390;DHT22;2209;48.982;8.406;2022-08-06T05:21:23;22.70;69.40
4390;DHT22;2209;48.982;8.406;2022-08-06T05:23:51;22.80;69.50
4390;DHT22;2209;48.982;8.406;2022-08-06T05:26:15;22.80;69.50
4390;DHT22;2209;48.982;8.406;2022-08-06T05:28:39;22.80;69.30
4390;DHT22;2209;48.982;8.406;2022-08-06T05:31:02;22.70;69.60
4390;DHT22;2209;48.982;8.406;2022-08-06T05:33:43;22.70;69.40
4390;DHT22;2209;48.982;8.406;2022-08-06T05:36:08;22.70;69.30
4390;DHT22;2209;48.982;8.406;2022-08-06T05:38:33;22.70;69.30
4390;DHT22;2209;48.982;8.406;2022-08-06T05:40:56;22.80;69.20
4390;DHT22;2209;48.982;8.406;2022-08-06T05:43:20;22.80;69.10
4390;DHT22;2209;48.982;8.406;2022-08-06T05:45:44;22.80;69.30
4390;DHT22;2209;48.982;8.406;2022-08-06T05:48:11;22.70;69.00
4390;DHT22;2209;48.982;8.406;2022-08-06T05:50:38;22.70;70.00
4390;DHT22;2209;48.982;8.406;2022-08-06T05:53:08;22.70;69.20
4390;DHT22;2209;48.982;8.406;2022-08-06T05:55:38;22.70;69.20
4390;DHT22;2209;48.982;8.406;2022-08-06T05:58:04;22.70;69.30
4390;DHT22;2209;48.982;8.406;2022-08-06T06:00:31;22.70;69.30
4390;DHT22;2209;48.982;8.406;2022-08-06T06:02:55;22.70;69.10
4390;DHT22;2209;48.982;8.406;2022-08-06T06:05:21;22.60;69.60
4390;DHT22;2209;48.982;8.406;2022-08-06T06:07:45;22.60;69.90
4390;DHT22;2209;48.982;8.406;2022-08-06T06:10:09;22.50;69.10
4390;DHT22;2209;48.982;8.406;2022-08-06T06:12:36;22.50;69.50
4390;DHT22;2209;48.982;8.406;2022-08-06T06:15:03;22.50;69.60
4390;DHT22;2209;48.982;8.406;2022-08-06T06:18:02;22.40;69.10
4390;DHT22;2209;48.982;8.406;2022-08-06T06:20:44;22.40;69.60
4390;DHT22;2209;48.982;8.406;2022-08-06T06:23:13;22.40;70.10
4390;DHT22;2209;48.982;8.406;2022-08-06T06:25:44;22.40;70.00
4390;DHT22;2209;48.982;8.406;2022-08-06T06:28:22;22.40;70.10
4390;DHT22;2209;48.982;8.406;2022-08-06T06:30:53;22.50;70.10
4390;DHT22;2209;48.982;8.406;2022-08-06T06:33:24;22.50;70.00
4390;DHT22;2209;48.982;8.406;2022-08-06T06:35:53;22.50;70.00
4390;DHT22;2209;48.982;8.406;2022-08-06T06:38:26;22.50;69.70
4390;DHT22;2209;48.982;8.406;2022-08-06T06:40:57;22.50;69.80
4390;DHT22;2209;48.982;8.406;2022-08-06T06:43:32;22.50;69.90
4390;DHT22;2209;48.982;8.406;2022-08-06T06:46:01;22.60;69.80
4390;DHT22;2209;48.982;8.406;2022-08-06T06:48:36;22.60;69.60
4390;DHT22;2209;48.982;8.406;2022-08-06T06:51:07;22.60;69.50
4390;DHT22;2209;48.982;8.406;2022-08-06T06:53:34;22.60;69.40
4390;DHT22;2209;48.982;8.406;2022-08-06T06:56:00;22.60;69.50
4390;DHT22;2209;48.982;8.406;2022-08-06T06:58:28;22.60;69.20
4390;DHT22;2209;48.982;8.406;2022-08-06T07:00:56;22.50;69.50
4390;DHT22;2209;48.982;8.406;2022-08-06T07:03:19;22.50;69.90
4390;DHT22;2209;48.982;8.406;2022-08-06T07:05:47;22.50;70.00
4390;DHT22;2209;48.982;8.406;2022-08-06T07:08:11;22.50;70.00
4390;DHT22;2209;48.982;8.406;2022-08-06T07:17:06;22.40;70.30
4390;DHT22;2209;48.982;8.406;2022-08-06T07:19:31;22.40;70.60
4390;DHT22;2209;48.982;8.406;2022-08-06T07:21:55;22.50;70.90
4390;DHT22;2209;48.982;8.406;2022-08-06T07:24:22;22.40;70.90
4390;DHT22;2209;48.982;8.406;2022-08-06T07:26:48;22.50;70.90
4390;DHT22;2209;48.982;8.406;2022-08-06T07:29:15;22.50;70.90
4390;DHT22;2209;48.982;8.406;2022-08-06T07:31:40;22.50;70.90
4390;DHT22;2209;48.982;8.406;2022-08-06T07:34:06;22.50;70.90
4390;DHT22;2209;48.982;8.406;2022-08-06T07:36:32;22.50;70.90
4390;DHT22;2209;48.982;8.406;2022-08-06T07:38:59;22.50;71.00
4390;DHT22;2209;48.982;8.406;2022-08-06T07:41:27;22.50;70.70
4390;DHT22;2209;48.982;8.406;2022-08-06T07:43:54;22.50;70.70
4390;DHT22;2209;48.982;8.406;2022-08-06T07:46:21;22.50;70.80
4390;DHT22;2209;48.982;8.406;2022-08-06T07:48:47;22.50;70.60
4390;DHT22;2209;48.982;8.406;2022-08-06T07:51:13;22.50;70.10
4390;DHT22;2209;48.982;8.406;2022-08-06T07:53:40;22.50;69.70
4390;DHT22;2209;48.982;8.406;2022-08-06T07:56:05;22.50;69.90
4390;DHT22;2209;48.982;8.406;2022-08-06T07:58:30;22.50;69.90
4390;DHT22;2209;48.982;8.406;2022-08-06T08:01:01;22.50;69.60
4390;DHT22;2209;48.982;8.406;2022-08-06T08:03:25;22.50;69.60
4390;DHT22;2209;48.982;8.406;2022-08-06T08:06:06;22.50;69.30
4390;DHT22;2209;48.982;8.406;2022-08-06T08:08:45;22.50;69.00
4390;DHT22;2209;48.982;8.406;2022-08-06T08:11:09;22.40;69.60
4390;DHT22;2209;48.982;8.406;2022-08-06T08:13:32;22.30;69.70
4390;DHT22;2209;48.982;8.406;2022-08-06T08:15:59;22.40;70.00
4390;DHT22;2209;48.982;8.406;2022-08-06T08:18:28;22.40;69.30
4390;DHT22;2209;48.982;8.406;2022-08-06T08:20:52;22.40;68.00
4390;DHT22;2209;48.982;8.406;2022-08-06T08:23:15;22.40;66.80
4390;DHT22;2209;48.982;8.406;2022-08-06T08:25:42;22.40;66.60
4390;DHT22;2209;48.982;8.406;2022-08-06T08:28:05;22.40;67.10
4390;DHT22;2209;48.982;8.406;2022-08-06T08:30:29;22.40;66.70
4390;DHT22;2209;48.982;8.406;2022-08-06T08:32:51;22.40;65.70
4390;DHT22;2209;48.982;8.406;2022-08-06T08:35:14;22.40;65.20
4390;DHT22;2209;48.982;8.406;2022-08-06T08:37:38;22.40;65.00
4390;DHT22;2209;48.982;8.406;2022-08-06T08:40:02;22.40;63.00
4390;DHT22;2209;48.982;8.406;2022-08-06T08:42:31;22.30;62.70
4390;DHT22;2209;48.982;8.406;2022-08-06T08:45:03;22.30;63.20
4390;DHT22;2209;48.982;8.406;2022-08-06T08:47:27;22.30;63.10
4390;DHT22;2209;48.982;8.406;2022-08-06T08:49:54;22.30;62.00
4390;DHT22;2209;48.982;8.406;2022-08-06T08:52:27;22.30;62.40
4390;DHT22;2209;48.982;8.406;2022-08-06T08:54:52;22.30;61.90
4390;DHT22;2209;48.982;8.406;2022-08-06T08:57:17;22.30;61.20
4390;DHT22;2209;48.982;8.406;2022-08-06T08:59:42;22.30;62.30
4390;DHT22;2209;48.982;8.406;2022-08-06T09:02:05;22.20;61.50
4390;DHT22;2209;48.982;8.406;2022-08-06T09:04:30;22.20;61.80
4390;DHT22;2209;48.982;8.406;2022-08-06T09:06:53;22.20;62.20
4390;DHT22;2209;48.982;8.406;2022-08-06T09:09:16;22.20;61.80
4390;DHT22;2209;48.982;8.406;2022-08-06T09:11:42;22.20;62.70
4390;DHT22;2209;48.982;8.406;2022-08-06T09:14:06;22.30;62.60
4390;DHT22;2209;48.982;8.406;2022-08-06T09:16:31;22.30;62.40
4390;DHT22;2209;48.982;8.406;2022-08-06T09:18:54;22.30;61.70
4390;DHT22;2209;48.982;8.406;2022-08-06T09:21:20;22.30;60.50
4390;DHT22;2209;48.982;8.406;2022-08-06T09:23:43;22.40;61.40
4390;DHT22;2209;48.982;8.406;2022-08-06T09:26:06;22.40;61.40
4390;DHT22;2209;48.982;8.406;2022-08-06T09:28:30;22.40;60.50
4390;DHT22;2209;48.982;8.406;2022-08-06T09:30:57;22.40;61.20
4390;DHT22;2209;48.982;8.406;2022-08-06T09:36:43;22.50;61.30
4390;DHT22;2209;48.982;8.406;2022-08-06T09:39:07;22.50;61.00
4390;DHT22;2209;48.982;8.406;2022-08-06T09:41:31;22.50;61.20
4390;DHT22;2209;48.982;8.406;2022-08-06T09:43:54;22.50;60.60
4390;DHT22;2209;48.982;8.406;2022-08-06T09:49:06;22.60;59.20
4390;DHT22;2209;48.982;8.406;2022-08-06T09:51:31;22.50;59.40
4390;DHT22;2209;48.982;8.406;2022-08-06T09:53:58;22.40;59.40
4390;DHT22;2209;48.982;8.406;2022-08-06T09:56:22;22.40;60.10
4390;DHT22;2209;48.982;8.406;2022-08-06T09:58:45;22.40;60.50
4390;DHT22;2209;48.982;8.406;2022-08-06T10:03:54;22.40;59.40
4390;DHT22;2209;48.982;8.406;2022-08-06T10:06:18;22.30;59.90
4390;DHT22;2209;48.982;8.406;2022-08-06T10:08:42;22.40;60.50
4390;DHT22;2209;48.982;8.406;2022-08-06T10:11:10;22.40;61.10
4390;DHT22;2209;48.982;8.406;2022-08-06T10:13:33;22.40;60.80
4390;DHT22;2209;48.982;8.406;2022-08-06T10:15:57;22.50;60.30
4390;DHT22;2209;48.982;8.406;2022-08-06T10:18:49;22.50;58.90
4390;DHT22;2209;48.982;8.406;2022-08-06T10:21:16;22.50;59.10
4390;DHT22;2209;48.982;8.406;2022-08-06T10:23:39;22.50;59.50
4390;DHT22;2209;48.982;8.406;2022-08-06T10:26:08;22.50;59.10
4390;DHT22;2209;48.982;8.406;2022-08-06T10:28:43;22.60;59.70
4390;DHT22;2209;48.982;8.406;2022-08-06T10:31:07;22.60;59.60
4390;DHT22;2209;48.982;8.406;2022-08-06T10:33:33;22.60;59.40
4390;DHT22;2209;48.982;8.406;2022-08-06T10:36:01;22.60;59.00
4390;DHT22;2209;48.982;8.406;2022-08-06T10:38:26;22.60;59.20
4390;DHT22;2209;48.982;8.406;2022-08-06T10:40:52;22.60;59.30
4390;DHT22;2209;48.982;8.406;2022-08-06T10:43:15;22.70;59.30
4390;DHT22;2209;48.982;8.406;2022-08-06T10:45:41;22.60;59.00
4390;DHT22;2209;48.982;8.406;2022-08-06T10:48:11;22.70;59.00
4390;DHT22;2209;48.982;8.406;2022-08-06T10:50:33;22.70;58.60
4390;DHT22;2209;48.982;8.406;2022-08-06T10:52:57;22.70;56.70
4390;DHT22;2209;48.982;8.406;2022-08-06T10:55:20;22.70;57.50
4390;DHT22;2209;48.982;8.406;2022-08-06T10:57:46;22.70;58.00
4390;DHT22;2209;48.982;8.406;2022-08-06T11:03:38;22.70;57.50
4390;DHT22;2209;48.982;8.406;2022-08-06T11:06:15;22.80;58.10
4390;DHT22;2209;48.982;8.406;2022-08-06T11:08:52;22.80;58.10
4390;DHT22;2209;48.982;8.406;2022-08-06T11:11:30;22.70;58.10
4390;DHT22;2209;48.982;8.406;2022-08-06T11:14:14;22.80;58.10
4390;DHT22;2209;48.982;8.406;2022-08-06T11:16:38;22.80;58.20
4390;DHT22;2209;48.982;8.406;2022-08-06T11:19:04;22.80;57.10
4390;DHT22;2209;48.982;8.406;2022-08-06T11:21:47;22.90;56.20
4390;DHT22;2209;48.982;8.406;2022-08-06T11:24:13;22.90;56.50
4390;DHT22;2209;48.982;8.406;2022-08-06T11:26:38;22.90;56.90
4390;DHT22;2209;48.982;8.406;2022-08-06T11:29:03;22.90;57.20
4390;DHT22;2209;48.982;8.406;2022-08-06T11:31:37;22.90;57.60
4390;DHT22;2209;48.982;8.406;2022-08-06T11:34:05;22.90;57.20
4390;DHT22;2209;48.982;8.406;2022-08-06T11:36:50;22.90;57.20
4390;DHT22;2209;48.982;8.406;2022-08-06T11:39:16;22.90;56.10
4390;DHT22;2209;48.982;8.406;2022-08-06T11:41:52;22.90;56.50
4390;DHT22;2209;48.982;8.406;2022-08-06T11:44:16;22.90;56.90
4390;DHT22;2209;48.982;8.406;2022-08-06T11:46:41;22.90;57.20
4390;DHT22;2209;48.982;8.406;2022-08-06T11:49:34;22.90;57.20
4390;DHT22;2209;48.982;8.406;2022-08-06T11:51:59;23.00;57.50
4390;DHT22;2209;48.982;8.406;2022-08-06T11:54:23;23.00;56.80
4390;DHT22;2209;48.982;8.406;2022-08-06T11:57:17;23.00;57.20
4390;DHT22;2209;48.982;8.406;2022-08-06T11:59:47;23.00;57.60
4390;DHT22;2209;48.982;8.406;2022-08-06T12:02:58;23.10;57.70
4390;DHT22;2209;48.982;8.406;2022-08-06T12:05:38;23.10;58.00
4390;DHT22;2209;48.982;8.406;2022-08-06T12:08:24;23.20;58.00
4390;DHT22;2209;48.982;8.406;2022-08-06T12:13:51;23.30;55.90
4390;DHT22;2209;48.982;8.406;2022-08-06T12:16:36;23.20;56.40
4390;DHT22;2209;48.982;8.406;2022-08-06T12:19:00;23.20;57.00
4390;DHT22;2209;48.982;8.406;2022-08-06T12:21:24;23.30;56.40
4390;DHT22;2209;48.982;8.406;2022-08-06T12:23:49;23.30;56.30
4390;DHT22;2209;48.982;8.406;2022-08-06T12:26:12;23.30;56.60
4390;DHT22;2209;48.982;8.406;2022-08-06T12:28:34;23.30;56.80
4390;DHT22;2209;48.982;8.406;2022-08-06T12:34:23;23.40;57.10
4390;DHT22;2209;48.982;8.406;2022-08-06T12:36:48;23.40;56.60
4390;DHT22;2209;48.982;8.406;2022-08-06T12:39:11;23.40;56.10
4390;DHT22;2209;48.982;8.406;2022-08-06T12:41:39;23.50;56.50
4390;DHT22;2209;48.982;8.406;2022-08-06T12:44:03;23.50;56.10
4390;DHT22;2209;48.982;8.406;2022-08-06T12:46:26;23.50;56.20
4390;DHT22;2209;48.982;8.406;2022-08-06T12:48:50;23.60;56.50
4390;DHT22;2209;48.982;8.406;2022-08-06T12:51:13;23.60;56.50
4390;DHT22;2209;48.982;8.406;2022-08-06T12:53:40;23.60;55.70
4390;DHT22;2209;48.982;8.406;2022-08-06T12:56:21;23.70;55.30
4390;DHT22;2209;48.982;8.406;2022-08-06T12:58:46;23.70;55.20
4390;DHT22;2209;48.982;8.406;2022-08-06T13:01:14;23.70;55.20
4390;DHT22;2209;48.982;8.406;2022-08-06T13:03:48;23.80;55.20
4390;DHT22;2209;48.982;8.406;2022-08-06T13:06:14;23.80;54.90
4390;DHT22;2209;48.982;8.406;2022-08-06T13:08:39;23.90;54.60
4390;DHT22;2209;48.982;8.406;2022-08-06T13:11:03;24.00;54.30
4390;DHT22;2209;48.982;8.406;2022-08-06T13:13:37;24.00;54.10
4390;DHT22;2209;48.982;8.406;2022-08-06T13:16:06;24.00;53.70
4390;DHT22;2209;48.982;8.406;2022-08-06T13:18:31;24.10;53.80
4390;DHT22;2209;48.982;8.406;2022-08-06T13:20:57;24.10;53.90
4390;DHT22;2209;48.982;8.406;2022-08-06T13:23:31;24.10;53.70
4390;DHT22;2209;48.982;8.406;2022-08-06T13:25:58;24.20;53.40
4390;DHT22;2209;48.982;8.406;2022-08-06T13:28:23;24.30;52.10
4390;DHT22;2209;48.982;8.406;2022-08-06T13:30:46;24.30;52.00
4390;DHT22;2209;48.982;8.406;2022-08-06T13:33:14;24.30;52.10
4390;DHT22;2209;48.982;8.406;2022-08-06T13:35:37;24.30;52.40
4390;DHT22;2209;48.982;8.406;2022-08-06T13:38:00;24.30;52.80
4390;DHT22;2209;48.982;8.406;2022-08-06T13:40:36;24.30;52.40
4390;DHT22;2209;48.982;8.406;2022-08-06T13:43:01;24.50;51.30
4390;DHT22;2209;48.982;8.406;2022-08-06T13:45:25;24.50;51.30
4390;DHT22;2209;48.982;8.406;2022-08-06T13:47:50;24.50;51.70
4390;DHT22;2209;48.982;8.406;2022-08-06T13:50:13;24.40;52.00
4390;DHT22;2209;48.982;8.406;2022-08-06T13:52:37;24.50;52.00
4390;DHT22;2209;48.982;8.406;2022-08-06T13:55:00;24.60;51.80
4390;DHT22;2209;48.982;8.406;2022-08-06T13:57:23;24.60;52.60
4390;DHT22;2209;48.982;8.406;2022-08-06T13:59:55;24.60;52.70
4390;DHT22;2209;48.982;8.406;2022-08-06T14:02:18;24.70;52.80
4390;DHT22;2209;48.982;8.406;2022-08-06T14:04:58;24.80;52.30
4390;DHT22;2209;48.982;8.406;2022-08-06T14:07:21;24.80;52.50
4390;DHT22;2209;48.982;8.406;2022-08-06T14:09:44;24.80;52.30
4390;DHT22;2209;48.982;8.406;2022-08-06T14:12:08;24.80;51.60
4390;DHT22;2209;48.982;8.406;2022-08-06T14:14:37;24.90;51.00
4390;DHT22;2209;48.982;8.406;2022-08-06T14:17:02;24.90;50.80
4390;DHT22;2209;48.982;8.406;2022-08-06T14:19:26;25.00;49.60
4390;DHT22;2209;48.982;8.406;2022-08-06T14:21:49;25.00;49.60
4390;DHT22;2209;48.982;8.406;2022-08-06T14:24:14;25.10;49.40
4390;DHT22;2209;48.982;8.406;2022-08-06T14:26:37;25.10;50.30
4390;DHT22;2209;48.982;8.406;2022-08-06T14:29:01;25.20;50.10
4390;DHT22;2209;48.982;8.406;2022-08-06T14:31:25;25.20;49.50
4390;DHT22;2209;48.982;8.406;2022-08-06T14:33:49;25.30;49.10
4390;DHT22;2209;48.982;8.406;2022-08-06T14:36:13;25.10;49.40
4390;DHT22;2209;48.982;8.406;2022-08-06T14:38:36;25.10;49.60
4390;DHT22;2209;48.982;8.406;2022-08-06T14:40:59;25.10;49.80
4390;DHT22;2209;48.982;8.406;2022-08-06T14:43:41;25.10;50.30
4390;DHT22;2209;48.982;8.406;2022-08-06T14:46:21;25.10;50.50
4390;DHT22;2209;48.982;8.406;2022-08-06T14:48:43;25.10;50.40
4390;DHT22;2209;48.982;8.406;2022-08-06T14:51:09;25.20;50.60
4390;DHT22;2209;48.982;8.406;2022-08-06T14:53:33;25.20;49.80
4390;DHT22;2209;48.982;8.406;2022-08-06T14:55:55;25.30;49.90
4390;DHT22;2209;48.982;8.406;2022-08-06T14:58:17;25.30;49.70
4390;DHT22;2209;48.982;8.406;2022-08-06T15:04:00;25.40;49.30
4390;DHT22;2209;48.982;8.406;2022-08-06T15:06:26;25.50;48.50
4390;DHT22;2209;48.982;8.406;2022-08-06T15:08:55;25.50;48.20
4390;DHT22;2209;48.982;8.406;2022-08-06T15:11:18;25.50;48.40
4390;DHT22;2209;48.982;8.406;2022-08-06T15:13:42;25.50;48.20
4390;DHT22;2209;48.982;8.406;2022-08-06T15:16:08;25.50;48.20
4390;DHT22;2209;48.982;8.406;2022-08-06T15:18:32;25.50;48.60
4390;DHT22;2209;48.982;8.406;2022-08-06T15:20:55;25.50;48.50
4390;DHT22;2209;48.982;8.406;2022-08-06T15:23:20;25.60;47.30
4390;DHT22;2209;48.982;8.406;2022-08-06T15:25:45;25.70;46.70
4390;DHT22;2209;48.982;8.406;2022-08-06T15:28:10;25.70;47.50
4390;DHT22;2209;48.982;8.406;2022-08-06T15:30:38;25.80;46.90
4390;DHT22;2209;48.982;8.406;2022-08-06T15:33:08;25.90;46.80
4390;DHT22;2209;48.982;8.406;2022-08-06T15:35:31;25.80;47.30
4390;DHT22;2209;48.982;8.406;2022-08-06T15:38:19;25.90;47.00
4390;DHT22;2209;48.982;8.406;2022-08-06T15:40:42;25.90;47.60
4390;DHT22;2209;48.982;8.406;2022-08-06T15:43:05;25.90;47.80
4390;DHT22;2209;48.982;8.406;2022-08-06T15:45:31;25.90;46.50
4390;DHT22;2209;48.982;8.406;2022-08-06T15:47:54;26.00;46.70
4390;DHT22;2209;48.982;8.406;2022-08-06T15:50:18;26.00;46.40
4390;DHT22;2209;48.982;8.406;2022-08-06T15:52:41;26.00;46.60
4390;DHT22;2209;48.982;8.406;2022-08-06T15:55:08;26.00;46.70
4390;DHT22;2209;48.982;8.406;2022-08-06T15:57:32;26.00;46.40
4390;DHT22;2209;48.982;8.406;2022-08-06T16:00:00;25.90;46.30
4390;DHT22;2209;48.982;8.406;2022-08-06T16:02:25;25.90;46.30
4390;DHT22;2209;48.982;8.406;2022-08-06T16:04:49;26.00;45.80
4390;DHT22;2209;48.982;8.406;2022-08-06T16:07:14;26.00;45.70
4390;DHT22;2209;48.982;8.406;2022-08-06T16:09:37;26.00;46.00
4390;DHT22;2209;48.982;8.406;2022-08-06T16:12:02;26.00;46.20
4390;DHT22;2209;48.982;8.406;2022-08-06T16:14:26;26.00;45.50
4390;DHT22;2209;48.982;8.406;2022-08-06T16:16:54;26.10;45.60
4390;DHT22;2209;48.982;8.406;2022-08-06T16:19:17;26.10;45.40
4390;DHT22;2209;48.982;8.406;2022-08-06T16:21:41;26.10;45.50
4390;DHT22;2209;48.982;8.406;2022-08-06T16:24:15;26.10;45.40
4390;DHT22;2209;48.982;8.406;2022-08-06T16:26:39;26.10;46.00
4390;DHT22;2209;48.982;8.406;2022-08-06T16:29:08;26.10;45.80
4390;DHT22;2209;48.982;8.406;2022-08-06T16:31:31;26.10;46.10